createdAt,value
2018-05-21T00:01:50.304Z,101158.30
2018-05-21T00:04:18.590Z,101161.79
2018-05-21T00:06:46.875Z,101159.33
2018-05-21T00:09:15.198Z,101165.81
2018-05-21T00:11:43.478Z,101161.46
2018-05-21T00:14:11.749Z,101153.27
2018-05-21T00:16:40.125Z,101157.48
2018-05-21T00:19:08.311Z,101148.80
2018-05-21T00:21:36.606Z,101155.95
2018-05-21T00:24:04.892Z,101149.36
2018-05-21T00:26:33.166Z,101155.70
2018-05-21T00:29:01.784Z,101151.97
2018-05-21T00:31:30.093Z,101145.66
2018-05-21T00:33:58.382Z,101145.70
2018-05-21T00:36:26.659Z,101145.92
2018-05-21T00:38:55.258Z,101139.16
2018-05-21T00:41:23.861Z,101141.91
2018-05-21T00:43:52.149Z,101144.46
2018-05-21T00:46:20.426Z,101136.47
2018-05-21T00:48:48.699Z,101139.71
2018-05-21T00:51:16.978Z,101136.92
2018-05-21T00:53:45.274Z,101134.50
2018-05-21T00:56:13.558Z,101124.18
2018-05-21T00:58:41.834Z,101128.25
2018-05-21T01:01:10.129Z,101125.33
2018-05-21T01:03:38.406Z,101118.41
2018-05-21T01:06:06.710Z,101123.50
2018-05-21T01:08:35.020Z,101120.68
2018-05-21T01:11:03.298Z,101121.25
2018-05-21T01:13:31.590Z,101114.95
2018-05-21T01:15:59.862Z,101112.06
2018-05-21T01:18:28.161Z,101106.78
2018-05-21T01:20:56.441Z,101114.14
2018-05-21T01:23:24.711Z,101104.48
2018-05-21T01:25:52.998Z,101109.88
2018-05-21T01:28:21.274Z,101107.87
2018-05-21T01:30:49.905Z,101101.25
2018-05-21T01:33:18.196Z,101105.39
2018-05-21T01:35:46.479Z,101100.73
2018-05-21T01:38:14.758Z,101108.25
2018-05-21T01:40:43.038Z,101101.09
2018-05-21T01:43:11.346Z,101107.70
2018-05-21T01:45:39.617Z,101103.23
2018-05-21T01:48:07.905Z,101107.11
2018-05-21T01:50:36.174Z,101099.19
2018-05-21T01:53:04.449Z,101101.44
2018-05-21T01:55:32.741Z,101098.05
2018-05-21T01:58:01.022Z,101093.69
2018-05-21T02:00:29.311Z,101091.86
2018-05-21T02:02:57.598Z,101084.61
2018-05-21T02:05:25.878Z,101082.59
2018-05-21T02:07:54.174Z,101080.20
2018-05-21T02:10:22.462Z,101084.13
2018-05-21T02:12:50.739Z,101081.25
2018-05-21T02:15:19.010Z,101078.84
2018-05-21T02:17:47.297Z,101079.33
2018-05-21T02:20:15.569Z,101079.72
2018-05-21T02:22:43.878Z,101076.76
2018-05-21T02:25:12.165Z,101081.17
2018-05-21T02:27:40.438Z,101069.19
2018-05-21T02:30:08.735Z,101080.42
2018-05-21T02:32:37.018Z,101078.41
2018-05-21T02:35:05.306Z,101069.67
2018-05-21T02:37:33.587Z,101068.41
2018-05-21T02:40:01.876Z,101063.52
2018-05-21T02:42:30.154Z,101076.22
2018-05-21T02:44:58.434Z,101067.05
2018-05-21T02:47:26.722Z,101069.34
2018-05-21T02:49:54.998Z,101063.63
2018-05-21T02:52:23.272Z,101059.09
2018-05-21T02:54:51.562Z,101058.93
2018-05-21T02:57:19.890Z,101054.02
2018-05-21T02:59:48.123Z,101048.88
2018-05-21T03:02:16.394Z,101045.41
2018-05-21T03:04:44.677Z,101051.45
2018-05-21T03:07:12.962Z,101055.16
2018-05-21T03:09:41.250Z,101052.88
2018-05-21T03:12:09.554Z,101042.17
2018-05-21T03:14:37.824Z,101043.33
2018-05-21T03:17:06.102Z,101042.72
2018-05-21T03:19:34.394Z,101043.06
2018-05-21T03:22:02.718Z,101040.84
2018-05-21T03:24:31.021Z,101037.69
2018-05-21T03:26:59.299Z,101041.95
2018-05-21T03:29:27.581Z,101042.88
2018-05-21T03:31:55.870Z,101033.95
2018-05-21T03:34:24.144Z,101038.36
2018-05-21T03:36:52.453Z,101039.62
2018-05-21T03:39:20.730Z,101025.92
2018-05-21T03:41:49.014Z,101031.77
2018-05-21T03:44:17.322Z,101029.84
2018-05-21T03:46:46.002Z,101031.12
2018-05-21T03:49:14.254Z,101022.76
2018-05-21T03:51:42.529Z,101021.89
2018-05-21T03:54:10.807Z,101025.92
2018-05-21T03:56:39.092Z,101026.30
2018-05-21T03:59:19.102Z,101027.62
2018-05-21T04:01:59.170Z,101028.17
2018-05-21T04:04:27.540Z,101028.88
2018-05-21T04:06:55.737Z,101030.94
2018-05-21T04:09:24.027Z,101025.64
2018-05-21T04:11:52.361Z,101032.59
2018-05-21T04:14:21.882Z,101027.89
2018-05-21T04:16:50.152Z,101026.59
2018-05-21T04:19:18.440Z,101031.82
2018-05-21T04:21:46.733Z,101029.69
2018-05-21T04:24:15.002Z,101017.80
2018-05-21T04:26:43.290Z,101018.72
2018-05-21T04:29:11.570Z,101022.75
2018-05-21T04:31:39.865Z,101015.24
2018-05-21T04:34:08.138Z,101017.25
2018-05-21T04:36:36.423Z,101023.23
2018-05-21T04:39:05.346Z,101026.14
2018-05-21T04:41:33.621Z,101020.30
2018-05-21T04:44:01.899Z,101018.23
2018-05-21T04:46:30.206Z,101016.12
2018-05-21T04:48:58.482Z,101015.08
2018-05-21T04:51:26.750Z,101016.02
2018-05-21T04:53:55.042Z,101017.34
2018-05-21T04:56:23.766Z,101008.64
2018-05-21T04:58:52.058Z,101004.33
2018-05-21T05:01:20.340Z,101010.27
2018-05-21T05:03:48.622Z,101003.02
2018-05-21T05:06:16.917Z,101003.08
2018-05-21T05:08:45.193Z,101007.05
2018-05-21T05:11:13.486Z,101007.64
2018-05-21T05:13:41.759Z,101003.89
2018-05-21T05:16:10.056Z,101002.09
2018-05-21T05:18:38.334Z,100999.81
2018-05-21T05:21:06.651Z,100996.53
2018-05-21T05:23:34.910Z,100996.09
2018-05-21T05:26:03.194Z,100992.34
2018-05-21T05:28:31.478Z,100989.71
2018-05-21T05:30:59.785Z,100984.62
2018-05-21T05:33:28.069Z,100988.23
2018-05-21T05:35:56.392Z,100984.70
2018-05-21T05:38:24.650Z,100980.19
2018-05-21T05:40:52.933Z,100980.89
2018-05-21T05:43:21.209Z,100984.68
2018-05-21T05:45:49.504Z,100978.39
2018-05-21T05:48:17.769Z,100975.64
2018-05-21T05:50:46.038Z,100975.22
2018-05-21T05:53:14.329Z,100974.12
2018-05-21T05:55:42.610Z,100966.42
2018-05-21T05:58:10.898Z,100973.85
2018-05-21T06:00:39.186Z,100968.50
2018-05-21T06:03:07.469Z,100964.39
2018-05-21T06:05:35.742Z,100964.21
2018-05-21T06:08:04.016Z,100956.88
2018-05-21T06:10:32.295Z,100960.23
2018-05-21T06:13:00.565Z,100962.75
2018-05-21T06:15:28.967Z,100962.21
2018-05-21T06:17:57.261Z,100959.59
2018-05-21T06:20:25.522Z,100952.66
2018-05-21T06:22:53.826Z,100956.51
2018-05-21T06:25:22.091Z,100946.62
2018-05-21T06:27:50.361Z,100954.11
2018-05-21T06:30:18.642Z,100946.79
2018-05-21T06:32:46.913Z,100948.46
2018-05-21T06:35:15.478Z,100945.53
2018-05-21T06:37:43.746Z,100934.88
2018-05-21T06:40:12.954Z,100936.69
2018-05-21T06:42:41.230Z,100935.99
2018-05-21T06:45:09.512Z,100929.94
2018-05-21T06:47:37.808Z,100928.09
2018-05-21T06:50:06.078Z,100933.02
2018-05-21T06:52:34.348Z,100922.72
2018-05-21T06:55:02.619Z,100933.56
2018-05-21T06:57:30.899Z,100930.90
2018-05-21T06:59:59.979Z,100933.91
2018-05-21T07:02:28.271Z,100927.36
2018-05-21T07:04:56.548Z,100930.34
2018-05-21T07:07:24.813Z,100931.44
2018-05-21T07:09:53.090Z,100932.63
2018-05-21T07:12:21.359Z,100926.48
2018-05-21T07:14:49.625Z,100928.24
2018-05-21T07:17:17.913Z,100922.72
2018-05-21T07:19:46.182Z,100921.00
2018-05-21T07:22:14.522Z,100923.27
2018-05-21T07:24:48.377Z,100922.34
2018-05-21T07:27:16.674Z,100919.92
2018-05-21T07:29:44.961Z,100913.81
2018-05-21T07:32:13.239Z,100903.00
2018-05-21T07:34:41.510Z,100901.58
2018-05-21T07:37:09.865Z,100905.87
2018-05-21T07:39:38.126Z,100902.48
2018-05-21T07:42:06.476Z,100904.13
2018-05-21T07:44:34.748Z,100900.48
2018-05-21T07:47:03.060Z,100899.16
2018-05-21T07:49:31.338Z,100895.47
2018-05-21T07:51:59.624Z,100891.42
2018-05-21T07:54:27.894Z,100897.06
2018-05-21T07:56:56.491Z,100891.22
2018-05-21T07:59:24.777Z,100894.22
2018-05-21T08:01:53.957Z,100894.30
2018-05-21T08:04:22.249Z,100889.83
2018-05-21T08:06:51.501Z,100889.47
2018-05-21T08:09:19.758Z,100882.34
2018-05-21T08:11:48.030Z,100882.92
2018-05-21T08:14:16.315Z,100883.73
2018-05-21T08:16:44.587Z,100879.23
2018-05-21T08:19:12.854Z,100875.34
2018-05-21T08:21:41.138Z,100864.94
2018-05-21T08:24:09.430Z,100864.98
2018-05-21T08:26:39.135Z,100875.26
2018-05-21T08:29:07.411Z,100861.30
2018-05-21T08:31:35.733Z,100859.50
2018-05-21T08:34:04.014Z,100860.44
2018-05-21T08:36:32.290Z,100861.20
2018-05-21T08:39:00.594Z,100857.03
2018-05-21T08:41:29.150Z,100847.51
2018-05-21T08:43:57.450Z,100852.77
2018-05-21T08:46:25.730Z,100850.90
2018-05-21T08:48:54.067Z,100856.94
2018-05-21T08:51:22.311Z,100851.25
2018-05-21T08:53:50.594Z,100838.31
2018-05-21T08:56:18.869Z,100844.66
2018-05-21T08:58:47.213Z,100841.94
2018-05-21T09:01:15.427Z,100833.77
2018-05-21T09:03:43.702Z,100831.56
2018-05-21T09:06:12.018Z,100821.36
2018-05-21T09:08:40.292Z,100814.77
2018-05-21T09:11:08.602Z,100824.83
2018-05-21T09:13:36.866Z,100828.14
2018-05-21T09:16:05.160Z,100821.73
2018-05-21T09:18:33.768Z,100815.41
2018-05-21T09:21:02.754Z,100801.72
2018-05-21T09:23:31.094Z,100807.94
2018-05-21T09:25:59.458Z,100804.10
2018-05-21T09:28:27.647Z,100806.06
2018-05-21T09:30:56.177Z,100802.77
2018-05-21T09:33:24.454Z,100797.49
2018-05-21T09:35:52.731Z,100791.56
2018-05-21T09:38:20.995Z,100794.45
2018-05-21T09:40:49.276Z,100783.73
2018-05-21T09:43:17.626Z,100788.86
2018-05-21T09:45:45.918Z,100784.37
2018-05-21T09:48:14.207Z,100789.36
2018-05-21T09:50:42.475Z,100784.99
2018-05-21T09:53:10.750Z,100786.52
2018-05-21T09:55:39.031Z,100787.13
2018-05-21T09:58:07.315Z,100801.92
2018-05-21T10:00:35.581Z,100781.73
2018-05-21T10:03:03.875Z,100785.42
2018-05-21T10:05:32.290Z,100778.02
2018-05-21T10:08:00.662Z,100773.29
2018-05-21T10:10:28.938Z,100772.13
2018-05-21T10:12:57.227Z,100774.36
2018-05-21T10:15:25.495Z,100770.20
2018-05-21T10:17:53.790Z,100763.08
2018-05-21T10:20:22.078Z,100763.44
2018-05-21T10:22:50.347Z,100765.66
2018-05-21T10:25:18.640Z,100755.78
2018-05-21T10:27:46.918Z,100753.16
2018-05-21T10:30:15.490Z,100752.38
2018-05-21T10:32:43.798Z,100753.38
2018-05-21T10:35:12.180Z,100746.60
2018-05-21T10:37:40.467Z,100750.83
2018-05-21T10:40:08.734Z,100739.21
2018-05-21T10:42:37.132Z,100736.00
2018-05-21T10:45:05.479Z,100735.33
2018-05-21T10:47:33.767Z,100736.23
2018-05-21T10:50:02.694Z,100738.20
2018-05-21T10:52:31.208Z,100727.72
2018-05-21T10:55:00.307Z,100742.17
2018-05-21T10:57:28.614Z,100726.28
2018-05-21T10:59:56.868Z,100733.88
2018-05-21T11:02:25.549Z,100727.88
2018-05-21T11:04:54.775Z,100714.47
2018-05-21T11:07:23.046Z,100718.25
2018-05-21T11:09:51.486Z,100717.75
2018-05-21T11:12:19.882Z,100718.82
2018-05-21T11:14:48.103Z,100725.89
2018-05-21T11:17:16.400Z,100717.34
2018-05-21T11:19:44.681Z,100713.58
2018-05-21T11:22:12.958Z,100710.80
2018-05-21T11:24:41.296Z,100720.86
2018-05-21T11:27:09.510Z,100713.58
2018-05-21T11:29:38.540Z,100715.45
2018-05-21T11:32:06.813Z,100710.80
2018-05-21T11:34:35.098Z,100703.67
2018-05-21T11:37:03.376Z,100694.12
2018-05-21T11:39:31.926Z,100697.84
2018-05-21T11:42:00.202Z,100691.91
2018-05-21T11:44:28.475Z,100704.57
2018-05-21T11:46:56.759Z,100690.13
2018-05-21T11:49:25.046Z,100685.33
2018-05-21T11:51:53.353Z,100683.05
2018-05-21T11:54:21.775Z,100683.20
2018-05-21T11:56:50.058Z,100684.21
2018-05-21T11:59:18.422Z,100684.33
2018-05-21T12:01:46.680Z,100675.39
2018-05-21T12:04:15.121Z,100672.06
2018-05-21T12:06:43.417Z,100669.73
2018-05-21T12:09:12.636Z,100675.21
2018-05-21T12:11:40.918Z,100664.11
2018-05-21T12:14:09.215Z,100663.73
2018-05-21T12:16:37.499Z,100659.19
2018-05-21T12:19:05.770Z,100663.07
2018-05-21T12:21:34.054Z,100661.66
2018-05-21T12:24:02.330Z,100661.52
2018-05-21T12:26:30.646Z,100650.34
2018-05-21T12:28:58.921Z,100643.10
2018-05-21T12:31:27.210Z,100654.47
2018-05-21T12:33:55.477Z,100648.38
2018-05-21T12:36:23.761Z,100647.67
2018-05-21T12:38:52.042Z,100642.86
2018-05-21T12:41:20.346Z,100644.08
2018-05-21T12:43:48.627Z,100645.36
2018-05-21T12:46:16.906Z,100637.69
2018-05-21T12:48:45.234Z,100632.06
2018-05-21T12:51:13.506Z,100631.25
2018-05-21T12:53:41.792Z,100627.77
2018-05-21T12:56:10.073Z,100635.30
2018-05-21T12:58:38.342Z,100632.99
2018-05-21T13:01:06.631Z,100630.27
2018-05-21T13:03:34.898Z,100627.94
2018-05-21T13:06:03.202Z,100639.04
2018-05-21T13:08:31.472Z,100636.39
2018-05-21T13:10:59.751Z,100637.51
2018-05-21T13:13:28.038Z,100627.48
2018-05-21T13:15:56.298Z,100610.67
2018-05-21T13:18:24.588Z,100626.79
2018-05-21T13:20:52.866Z,100621.92
2018-05-21T13:23:21.158Z,100616.92
2018-05-21T13:25:49.429Z,100623.47
2018-05-21T13:28:17.695Z,100615.81
2018-05-21T13:30:45.973Z,100620.55
2018-05-21T13:33:14.260Z,100610.31
2018-05-21T13:35:42.534Z,100618.01
2018-05-21T13:38:10.812Z,100606.43
2018-05-21T13:40:39.415Z,100610.84
2018-05-21T13:43:07.695Z,100609.25
2018-05-21T13:45:35.958Z,100603.00
2018-05-21T13:48:04.243Z,100600.78
2018-05-21T13:50:32.981Z,100603.75
2018-05-21T13:53:01.247Z,100595.80
2018-05-21T13:55:29.534Z,100597.96
2018-05-21T13:57:57.814Z,100597.95
2018-05-21T14:00:26.097Z,100595.24
2018-05-21T14:02:54.367Z,100589.95
2018-05-21T14:05:22.682Z,100592.52
2018-05-21T14:07:50.954Z,100585.62
2018-05-21T14:10:19.242Z,100587.79
2018-05-21T14:12:47.519Z,100592.50
2018-05-21T14:15:15.810Z,100585.06
2018-05-21T14:17:44.073Z,100579.72
2018-05-21T14:20:12.452Z,100575.16
2018-05-21T14:22:40.699Z,100563.22
2018-05-21T14:25:09.009Z,100574.52
2018-05-21T14:27:37.263Z,100576.21
2018-05-21T14:30:05.583Z,100571.00
2018-05-21T14:32:34.191Z,100565.70
2018-05-21T14:35:02.463Z,100565.45
2018-05-21T14:37:30.738Z,100561.14
2018-05-21T14:39:59.022Z,100564.77
2018-05-21T14:42:27.364Z,100557.70
2018-05-21T14:44:55.646Z,100547.59
2018-05-21T14:47:23.919Z,100538.69
2018-05-21T14:49:52.216Z,100548.28
2018-05-21T14:52:20.498Z,100539.72
2018-05-21T14:54:48.779Z,100534.84
2018-05-21T14:57:17.056Z,100540.23
2018-05-21T14:59:45.720Z,100545.06
2018-05-21T15:02:13.987Z,100539.28
2018-05-21T15:04:42.266Z,100531.95
2018-05-21T15:07:10.565Z,100537.92
2018-05-21T15:09:38.856Z,100537.88
2018-05-21T15:12:07.147Z,100533.53
2018-05-21T15:14:35.574Z,100534.97
2018-05-21T15:17:03.786Z,100527.01
2018-05-21T15:19:32.271Z,100525.44
2018-05-21T15:22:00.541Z,100524.03
2018-05-21T15:24:28.840Z,100521.59
2018-05-21T15:26:57.138Z,100525.52
2018-05-21T15:29:25.489Z,100522.85
2018-05-21T15:31:53.760Z,100520.09
2018-05-21T15:34:22.052Z,100521.11
2018-05-21T15:36:50.314Z,100509.09
2018-05-21T15:39:18.607Z,100515.92
2018-05-21T15:41:46.877Z,100515.97
2018-05-21T15:44:15.156Z,100507.73
2018-05-21T15:46:43.445Z,100507.87
2018-05-21T15:49:11.704Z,100512.41
2018-05-21T15:51:39.987Z,100503.72
2018-05-21T15:54:08.284Z,100494.60
2018-05-21T15:56:36.580Z,100497.61
2018-05-21T15:59:04.852Z,100495.77
2018-05-21T16:01:33.154Z,100494.22
2018-05-21T16:04:01.446Z,100491.14
2018-05-21T16:06:29.736Z,100486.91
2018-05-21T16:08:58.050Z,100485.98
2018-05-21T16:11:26.338Z,100486.62
2018-05-21T16:13:54.626Z,100482.25
2018-05-21T16:16:22.920Z,100482.41
2018-05-21T16:18:51.174Z,100487.80
2018-05-21T16:21:19.472Z,100482.25
2018-05-21T16:23:47.754Z,100473.14
2018-05-21T16:26:16.057Z,100474.35
2018-05-21T16:28:44.339Z,100470.70
2018-05-21T16:31:12.618Z,100477.00
2018-05-21T16:33:40.895Z,100479.98
2018-05-21T16:36:09.198Z,100478.00
2018-05-21T16:38:37.471Z,100472.10
2018-05-21T16:41:05.742Z,100468.30
2018-05-21T16:43:34.150Z,100471.88
2018-05-21T16:46:02.433Z,100468.05
2018-05-21T16:48:30.756Z,100468.76
2018-05-21T16:50:59.086Z,100466.88
2018-05-21T16:53:27.416Z,100462.33
2018-05-21T16:55:55.692Z,100466.09
2018-05-21T16:58:23.957Z,100461.25
2018-05-21T17:00:52.238Z,100459.39
2018-05-21T17:03:20.518Z,100461.34
2018-05-21T17:05:48.798Z,100461.22
2018-05-21T17:08:17.082Z,100462.55
2018-05-21T17:10:45.429Z,100460.60
2018-05-21T17:13:13.704Z,100459.67
2018-05-21T17:15:41.984Z,100453.73
2018-05-21T17:18:10.402Z,100456.92
2018-05-21T17:20:38.671Z,100454.58
2018-05-21T17:23:07.098Z,100458.84
2018-05-21T17:25:35.591Z,100460.83
2018-05-21T17:28:03.892Z,100461.88
2018-05-21T17:30:32.506Z,100457.51
2018-05-21T17:33:00.755Z,100466.45
2018-05-21T17:35:29.193Z,100466.59
2018-05-21T17:37:57.416Z,100459.72
2018-05-21T17:40:25.705Z,100454.69
2018-05-21T17:42:53.973Z,100447.84
2018-05-21T17:45:22.262Z,100453.40
2018-05-21T17:47:50.542Z,100450.37
2018-05-21T17:50:18.806Z,100457.19
2018-05-21T17:52:47.086Z,100446.27
2018-05-21T17:55:15.355Z,100449.28
2018-05-21T17:57:43.644Z,100457.25
2018-05-21T18:00:11.919Z,100462.58
2018-05-21T18:02:40.516Z,100466.83
2018-05-21T18:05:08.786Z,100468.22
2018-05-21T18:07:37.058Z,100466.63
2018-05-21T18:10:05.366Z,100470.48
2018-05-21T18:12:33.655Z,100471.49
2018-05-21T18:15:01.964Z,100472.88
2018-05-21T18:17:30.246Z,100468.00
2018-05-21T18:19:58.524Z,100468.52
2018-05-21T18:22:26.807Z,100470.81
2018-05-21T18:24:55.144Z,100471.92
2018-05-21T18:27:23.451Z,100473.64
2018-05-21T18:29:51.727Z,100474.71
2018-05-21T18:32:20.039Z,100473.21
2018-05-21T18:34:49.031Z,100475.23
2018-05-21T18:37:17.312Z,100472.06
2018-05-21T18:39:45.569Z,100470.09
2018-05-21T18:42:13.906Z,100465.92
2018-05-21T18:44:42.126Z,100464.31
2018-05-21T18:47:10.405Z,100470.16
2018-05-21T18:49:38.678Z,100464.71
2018-05-21T18:52:06.960Z,100465.38
2018-05-21T18:54:35.265Z,100470.52
2018-05-21T18:57:03.539Z,100469.56
2018-05-21T18:59:31.831Z,100463.52
2018-05-21T19:02:00.127Z,100471.02
2018-05-21T19:04:28.411Z,100473.61
2018-05-21T19:06:56.694Z,100470.53
2018-05-21T19:09:24.967Z,100469.34
2018-05-21T19:11:53.263Z,100472.17
2018-05-21T19:14:21.531Z,100474.26
2018-05-21T19:16:49.809Z,100478.63
2018-05-21T19:19:18.097Z,100479.75
2018-05-21T19:21:46.445Z,100483.20
2018-05-21T19:24:14.724Z,100479.62
2018-05-21T19:26:43.001Z,100488.61
2018-05-21T19:29:11.318Z,100489.97
2018-05-21T19:31:39.600Z,100490.47
2018-05-21T19:34:07.884Z,100490.13
2018-05-21T19:36:36.176Z,100492.81
2018-05-21T19:39:04.454Z,100490.60
2018-05-21T19:41:32.746Z,100493.44
2018-05-21T19:44:01.019Z,100495.41
2018-05-21T19:46:29.331Z,100497.31
2018-05-21T19:48:57.582Z,100503.12
2018-05-21T19:51:26.510Z,100505.61
2018-05-21T19:53:54.786Z,100499.13
2018-05-21T19:56:23.070Z,100500.38
2018-05-21T19:58:51.350Z,100503.98
2018-05-21T20:01:19.638Z,100506.69
2018-05-21T20:03:47.941Z,100507.02
2018-05-21T20:06:16.209Z,100506.75
2018-05-21T20:08:44.494Z,100505.54
2018-05-21T20:11:12.766Z,100499.23
2018-05-21T20:13:41.118Z,100509.47
2018-05-21T20:16:09.332Z,100503.88
2018-05-21T20:18:37.844Z,100502.90
2018-05-21T20:21:06.095Z,100512.11
2018-05-21T20:23:34.397Z,100510.92
2018-05-21T20:26:02.676Z,100513.84
2018-05-21T20:28:30.943Z,100509.72
2018-05-21T20:30:59.230Z,100505.00
2018-05-21T20:33:27.510Z,100507.32
2018-05-21T20:35:56.679Z,100502.36
2018-05-21T20:38:24.953Z,100506.83
2018-05-21T20:40:53.225Z,100499.08
2018-05-21T20:43:21.547Z,100509.18
2018-05-21T20:45:49.826Z,100503.42
2018-05-21T20:48:19.018Z,100502.54
2018-05-21T20:50:47.286Z,100508.93
2018-05-21T20:53:15.570Z,100507.61
2018-05-21T20:55:43.839Z,100498.02
2018-05-21T20:58:12.112Z,100502.23
2018-05-21T21:00:40.403Z,100506.66
2018-05-21T21:03:08.679Z,100507.98
2018-05-21T21:05:37.075Z,100501.91
2018-05-21T21:08:05.350Z,100503.87
2018-05-21T21:10:34.458Z,100501.34
2018-05-21T21:13:02.656Z,100496.98
2018-05-21T21:15:30.966Z,100508.39
2018-05-21T21:17:59.246Z,100502.71
2018-05-21T21:20:27.519Z,100505.37
2018-05-21T21:22:55.806Z,100502.13
2018-05-21T21:25:24.079Z,100505.65
2018-05-21T21:27:52.649Z,100502.84
2018-05-21T21:30:20.932Z,100503.20
2018-05-21T21:32:49.311Z,100503.60
2018-05-21T21:35:17.598Z,100507.20
2018-05-21T21:37:45.928Z,100499.08
2018-05-21T21:40:14.242Z,100503.22
2018-05-21T21:42:42.509Z,100500.29
2018-05-21T21:45:10.802Z,100499.99
2018-05-21T21:47:39.083Z,100498.41
2018-05-21T21:50:07.358Z,100501.16
2018-05-21T21:52:35.644Z,100503.50
2018-05-21T21:55:03.922Z,100505.93
2018-05-21T21:57:32.206Z,100511.41
2018-05-21T22:00:00.470Z,100507.45
2018-05-21T22:02:28.786Z,100503.78
2018-05-21T22:04:57.072Z,100508.64
2018-05-21T22:07:25.361Z,100512.42
2018-05-21T22:09:53.654Z,100506.48
2018-05-21T22:12:21.935Z,100497.06
2018-05-21T22:14:50.219Z,100499.78
2018-05-21T22:17:18.491Z,100501.31
2018-05-21T22:19:46.774Z,100498.97
2018-05-21T22:22:15.050Z,100489.72
2018-05-21T22:24:43.330Z,100500.88
2018-05-21T22:27:11.606Z,100493.27
2018-05-21T22:29:39.873Z,100491.41
2018-05-21T22:32:08.162Z,100485.08
2018-05-21T22:34:36.439Z,100489.16
2018-05-21T22:37:06.471Z,100481.75
2018-05-21T22:39:34.734Z,100480.72
2018-05-21T22:42:03.003Z,100480.95
2018-05-21T22:44:31.296Z,100477.83
2018-05-21T22:46:59.802Z,100479.42
2018-05-21T22:49:28.090Z,100481.80
2018-05-21T22:51:56.374Z,100474.43
2018-05-21T22:54:35.451Z,100479.34
2018-05-21T22:57:03.721Z,100476.92
2018-05-21T22:59:32.561Z,100479.70
2018-05-21T23:02:00.820Z,100480.22
2018-05-21T23:04:29.102Z,100483.90
2018-05-21T23:06:57.394Z,100487.44
2018-05-21T23:09:25.679Z,100490.64
2018-05-21T23:11:53.962Z,100487.70
2018-05-21T23:14:22.343Z,100492.19
2018-05-21T23:16:50.536Z,100494.41
2018-05-21T23:19:18.815Z,100493.55
2018-05-21T23:21:47.090Z,100494.16
2018-05-21T23:24:15.382Z,100494.00
2018-05-21T23:26:44.178Z,100493.38
2018-05-21T23:29:12.459Z,100488.97
2018-05-21T23:31:40.725Z,100485.80
2018-05-21T23:34:09.000Z,100492.92
2018-05-21T23:36:37.278Z,100487.19
2018-05-21T23:39:05.555Z,100486.66
2018-05-21T23:41:33.848Z,100484.89
2018-05-21T23:44:02.115Z,100483.95
2018-05-21T23:46:30.395Z,100486.86
2018-05-21T23:48:58.678Z,100482.11
2018-05-21T23:51:26.942Z,100488.44
2018-05-21T23:53:56.018Z,100492.49
2018-05-21T23:56:24.739Z,100497.23
2018-05-21T23:58:53.274Z,100499.58
